EBCI - Charleroi/Gosselies, Belgium
Distance de la station: NE 18km
Mise à jour: 05/04/2020 10:50
clair
clair
 Wind from SE
Vent: SE 19 km/h
Température: 14°C
Point de rosée: 0°C
Humidité: 39%
Baromètre: 1020 hPa
Résumé: clair
Visibilité: greater than 10 km
2020/04/05 08:50 EBCI 050850Z AUTO 14010KT CAVOK 14/00 Q1020
EBFS - Florennes, Belgium
Distance de la station: ESE 31km
Mise à jour: 05/04/2020 10:55
couvert
couvert
 Wind from SE
Vent: SE 24 km/h
Température: 14°C
Point de rosée: 1°C
Humidité: 41%
Baromètre: 1020 hPa
Ciel: couvert
Visibilité: 10 km
Détails du ciel: quelques nuages 2438 m
nuageux 2896 m
couvert 3353 m
2020/04/05 08:55 EBFS 050855Z AUTO 14013KT 9999 FEW080/// BKN095/// OVC110/// 14/01 Q1020 BLU
EBCV - Chievres, Belgium
Distance de la station: NO 40km
Mise à jour: 05/04/2020 10:55
clair
clair
 Wind from SE
Vent: SE 19 km/h
Température: 14°C
Point de rosée: 2°C
Humidité: 44%
Baromètre: 1020 hPa
Ciel: clair
Visibilité: 10 km
2020/04/05 08:55 EBCV 050855Z AUTO 14010KT 9999 NCD 14/02 Q1020 BLU
 
EBBE - Beauvechain, Belgium
Distance de la station: NE 57km
Mise à jour: 05/04/2020 10:55
clair
clair
 Wind from ESE
Vent: ESE 17 km/h
Température: 14°C
Point de rosée: 1°C
Humidité: 41%
Baromètre: 1021 hPa
Ciel: clair
Visibilité: 10 km
2020/04/05 08:55 EBBE 050855Z AUTO 12009KT 9999 NCD 14/01 Q1021 BLU
EBBR - Brussels National, Belgium
Distance de la station: NNE 63km
Mise à jour: 05/04/2020 10:50
clair
clair
 Wind from SE
Vent: SE 15 km/h
Température: 14°C
Point de rosée: 2°C
Humidité: 44%
Baromètre: 1020 hPa
Résumé: clair
Visibilité: greater than 10 km
2020/04/05 08:50 EBBR 050850Z 13008KT CAVOK 14/02 Q1020 NOSIG
LFQI - Cambrai/Epinoy, France
Distance de la station: O 82km
Mise à jour: 29/06/2012 12:30
NOT Current

 Wind from SO
Vent: SO 17 km/h
Température: 18°C
Point de rosée: 14°C
Humidité: 78%
Baromètre: 1009 hPa
2012/06/29 10:30 LFQI 291030Z AUTO 22009KT //// // ///////// 18/14 Q1009
 
LFQQ - Lille/Lesquin, France
Distance de la station: ONO 86km
Mise à jour: 05/04/2020 11:00
clair
clair
 Wind from SE
Vent: SE 26 km/h
Température: 13°C
Point de rosée: 3°C
Humidité: 51%
Baromètre: 1018 hPa
Résumé: clair
Visibilité: greater than 10 km
2020/04/05 09:00 LFQQ 050900Z AUTO 14014KT CAVOK 13/03 Q1018 NOSIG
EBLG - Bierset/Liege, Belgium
Distance de la station: ENE 89km
Mise à jour: 05/04/2020 10:50
clair
clair
 Wind from SSE
Vent: SSE 20 km/h
Température: 15°C
Point de rosée: 0°C
Humidité: 36%
Baromètre: 1021 hPa
Résumé: clair
Visibilité: greater than 10 km
2020/04/05 08:50 EBLG 050850Z 15011KT CAVOK 15/M00 Q1021 NOSIG
EBDT - Schaffen, Belgium
Distance de la station: NE 93km
Mise à jour: 05/04/2020 10:55
nuageux
nuageux
 Wind from SE
Vent: SE 15 km/h
Température: 14°C
Point de rosée: 2°C
Humidité: 44%
Baromètre: 1021 hPa
Ciel: nuageux
Visibilité: 10 km
Détails du ciel: partiellement nuageux 3048 m
nuageux 3658 m
nuageux 3962 m
2020/04/05 08:55 EBDT 050855Z AUTO 14008KT 9999 SCT100/// BKN120/// BKN130/// 14/02 Q1021 BLU
 
EBAW - Antwerp/Deurne, Belgium
Distance de la station: N 96km
Mise à jour: 05/04/2020 10:50
clair
clair
 Wind from SE
Vent: SE 19 km/h
Température: 13°C
Point de rosée: 2°C
Humidité: 47%
Baromètre: 1021 hPa
Résumé: clair
Visibilité: greater than 10 km
2020/04/05 08:50 EBAW 050850Z 14010KT CAVOK 13/02 Q1021 NOSIG
LFAQ - Bray, France
Distance de la station: OSO 119km
Mise à jour: 05/04/2020 11:00
clair
clair
 Wind from SE
Vent: SE 19 km/h
Température: 12°C
Point de rosée: 5°C
Humidité: 63%
Baromètre: 1018 hPa
Résumé: clair
Visibilité: greater than 10 km
2020/04/05 09:00 LFAQ 050900Z AUTO 14010KT CAVOK 12/05 Q1018
LFSR - Reims/Champagne, France
Distance de la station: S 120km
Mise à jour: 16/04/2012 09:00
NOT Current
partiellement nuageux
partiellement nuageux
 Wind from N
Vent: N 17 km/h
Température: 4°C
Température ressentie: 0°C
Point de rosée: 0°C
Humidité: 75%
Baromètre: 1022 hPa
Ciel: partiellement nuageux
Visibilité: 10 km
2012/04/16 07:00 LFSR 160700Z AUTO 01009KT 340V070 9999 NSC 04/00 Q1022
 
EHWO - Woensdrecht, Netherlands
Distance de la station: N 122km
Mise à jour: 05/04/2020 10:55
clair
clair
 Wind from ESE
Vent: ESE 15 km/h
Température: 14°C
Point de rosée: 1°C
Humidité: 41%
Baromètre: 1020 hPa
Ciel: clair
Visibilité: 10 km
2020/04/05 08:55 EHWO 050855Z AUTO 12008KT 080V170 9999 NCD 14/01 Q1020 BLU
EHBK - Zuid-Limburg, Netherlands
Distance de la station: ENE 123km
Mise à jour: 05/04/2020 10:55
clair
clair
 Wind from SE
Vent: SE 20 km/h
Température: 16°C
Point de rosée: 2°C
Humidité: 39%
Baromètre: 1021 hPa
Ciel: clair
Visibilité: 10 km
2020/04/05 08:55 EHBK 050855Z AUTO 14011KT 100V160 9999 NCD 16/02 Q1021 NOSIG
EBBL - Kleine-Brogel, Belgium
Distance de la station: NE 124km
Mise à jour: 05/04/2020 10:55
clair
clair
 Wind from E
Vent: E 11 km/h
Température: 14°C
Point de rosée: 2°C
Humidité: 44%
Baromètre: 1022 hPa
Ciel: clair
Visibilité: 10 km
2020/04/05 08:55 EBBL 050855Z AUTO 10006KT 9999 NCD 14/02 Q1022 BLU
 
EBLB - Elsenborn, Belgium
Distance de la station: E 135km
Mise à jour: 05/04/2020 10:55
clair
clair
 Wind from SSE
Vent: SSE 19 km/h
Température: 13°C
Point de rosée: -2°C
Humidité: 36%
Baromètre: 1022 hPa
Ciel: clair
Visibilité: 10 km
2020/04/05 08:55 EBLB 050855Z AUTO 15010KT 9999 NCD 13/M02 Q1022 BLU
EBOS - Oostende Airport, Belgium
Distance de la station: NO 136km
Mise à jour: 05/04/2020 10:50
clair
clair
 Wind from SE
Vent: SE 20 km/h
Température: 13°C
Point de rosée: 2°C
Humidité: 47%
Baromètre: 1019 hPa
Résumé: clair
Visibilité: greater than 10 km
2020/04/05 08:50 EBOS 050850Z 14011KT CAVOK 13/02 Q1019 NOSIG
EBFN - Koksijde, Belgium
Distance de la station: NO 140km
Mise à jour: 05/04/2020 10:55
clair
clair
 Wind from SSE
Vent: SSE 20 km/h
Température: 13°C
Point de rosée: 4°C
Humidité: 55%
Baromètre: 1018 hPa
Ciel: clair
Visibilité: 10 km
2020/04/05 08:55 EBFN 050855Z AUTO 15011KT 9999 NCD 13/04 Q1018 BLU
 
ETNG - Geilenkirchen, Germany
Distance de la station: ENE 142km
Mise à jour: 03/04/2020 17:50
NOT Current
clair
clair
 Wind from O
Vent: O 22 km/h
Température: 11°C
Point de rosée: 0°C
Humidité: 47%
Baromètre: 1018 hPa
Résumé: clair
Visibilité: greater than 10 km
2020/04/03 15:50 ETNG 031550Z 28012KT CAVOK 11/M00 Q1018 NOSIG
EHGR - Gilze-Rijen, Netherlands
Distance de la station: NNE 143km
Mise à jour: 05/04/2020 10:55
clair
clair
 Wind from SE
Vent: SE 19 km/h
Température: 15°C
Point de rosée: 2°C
Humidité: 42%
Baromètre: 1021 hPa
Ciel: clair
Visibilité: 10 km
2020/04/05 08:55 EHGR 050855Z AUTO 14010KT 100V160 9999 NCD 15/02 Q1021 BLU
EHEH - Eindhoven, Netherlands
Distance de la station: NNE 147km
Mise à jour: 05/04/2020 10:55
clair
clair
 Wind from ESE
Vent: ESE 15 km/h
Température: 15°C
Point de rosée: 2°C
Humidité: 42%
Baromètre: 1022 hPa
Ciel: clair
Visibilité: 10 km
2020/04/05 08:55 EHEH 050855Z AUTO 12008KT 080V180 9999 NCD 15/02 Q1022 BLU 12008G22KT CAVOK
 
ELLX - Luxembourg, Luxembourg
Distance de la station: ESE 162km
Mise à jour: 05/04/2020 10:50
clair
clair
 Wind from ESE
Vent: ESE 15 km/h
Température: 12°C
Point de rosée: 1°C
Humidité: 47%
Baromètre: 1022 hPa
Résumé: clair
Visibilité: greater than 10 km
2020/04/05 08:50 ELLX 050850Z 12008KT 060V170 CAVOK 12/01 Q1022 NOSIG
EHVK - Volkel, Netherlands
Distance de la station: NE 174km
Mise à jour: 05/04/2020 10:55
clair
clair
 Wind from SE
Vent: SE 20 km/h
Température: 15°C
Point de rosée: 2°C
Humidité: 42%
Baromètre: 1022 hPa
Ciel: clair
Visibilité: 10 km
2020/04/05 08:55 EHVK 050855Z AUTO 14011KT 100V160 9999 NCD 15/02 Q1022 BLU
LFOK - Chalons/Vatry, France
Distance de la station: S 174km
Mise à jour: 05/04/2020 11:00
clair
clair
 Wind from SSE
Vent: SSE 20 km/h
Température: 15°C
Point de rosée: 5°C
Humidité: 51%
Baromètre: 1019 hPa
Résumé: clair
Visibilité: greater than 10 km
2020/04/05 09:00 LFOK 050900Z AUTO 16011KT CAVOK 15/05 Q1019 NOSIG
Script from Saratoga-Weather.org